메인 페이지
METAR-TAF:

METAR-TAF

공항 :

Ponca City, 오클라호마, 미국

위도: 36-43-50N, 경도: 097-05-59W, 고도: 307m

현재 날씨관측

예보는 19분 전, 00:53시(UTC)에 발표되었습니다.
7kt
온도 30°C
습도 49%
기압 1010 hPa
시정: 16.1km
맑음

METAR: KPNC 210053Z AUTO 18007KT 10SM CLR 30/18 A2983 RMK AO2 SLP088 T03000183

시각: 20:12 (01:12 UTC)

예보

예보는 1 시간 48분 전, 23:24시(UTC)에 발표되었습니다.
예보 대상 시간: 21일 00시부터 21일 24시까지 (UTC)
남남동12kt
시정: 10km
고도 25000ft 상공 구름 많음
일시적
21일 09시부터 21일 12시까지 (UTC)
시정: 8.0km
고도 3000ft 상공 흐림, 적란운.
뇌우, 약한비
21일 1200시부터 (UTC)
북북동13kt, 순간 최대 풍속 20kt
시정: 9.7km
고도 2000ft 상공 흐림
약한소나기
일시적
21일 16시부터 21일 20시까지 (UTC)
시정: 4.8km
고도 1500ft 상공 흐림
소나기

TAF: KPNC 202324Z 2100/2124 16012KT P6SM BKN250 TEMPO 2109/2112 5SM -TSRA OVC030CB FM211200 03013G20KT 6SM -SHRA OVC020 TEMPO 2116/2120 3SM SHRA OVC015

4,000개 이상의 공항 관측 자료 및 예보 (METAR 및 TAF 보고).

지도상에서 검색 가능한 기상관측소가 노란 점과 빨간 점으로 표시되어 있습니다.

기상관측소 명을 보려면 표시 위로 마우스를 이동하세요.

날씨 관측과 예보를 보려면 클릭하세요.

지도 변경 : 확대하려면 엑스 표시가 있는 녹색 버튼, 축소하려면 빼기 표시가 있는 녹색 버튼, 다음 페이지의 지도를 보려면 녹색 화살표를 클릭하세요.


METAR-TAF: